createdAt,value
2022-10-02T07:25:47.244Z,98990.63
2022-10-02T07:29:05.417Z,98997.53
2022-10-02T07:32:33.971Z,98980.66
2022-10-02T07:35:54.525Z,99003.56
2022-10-02T07:39:14.700Z,99010.78
2022-10-02T07:42:46.329Z,99003.47
2022-10-02T07:46:09.479Z,99002.91
2022-10-02T07:49:37.549Z,99006.06
2022-10-02T07:52:57.902Z,99000.31
2022-10-02T07:56:10.577Z,98986.13
2022-10-02T07:59:21.998Z,98978.88
2022-10-02T08:02:38.385Z,98966.97
2022-10-02T08:05:50.119Z,98982.66
2022-10-02T08:09:03.817Z,98981.25
2022-10-02T08:12:24.006Z,98991.38
2022-10-02T08:15:38.827Z,99000.13
2022-10-02T08:18:53.739Z,99002.72
2022-10-02T08:22:09.435Z,99002.41
2022-10-02T08:25:25.667Z,99004.47
2022-10-02T08:28:42.703Z,99005.72
2022-10-02T08:31:54.039Z,98991.13
2022-10-02T08:35:12.477Z,98986.25
2022-10-02T08:38:36.529Z,98998.97
2022-10-02T08:42:14.648Z,99004.13
2022-10-02T08:45:49.118Z,98994.56
2022-10-02T08:49:28.776Z,99000.53
2022-10-02T08:53:08.274Z,99000.31
2022-10-02T08:56:26.261Z,99006.66
2022-10-02T08:59:53.645Z,99001.59
2022-10-02T09:03:34.297Z,99015.19
2022-10-02T09:07:14.261Z,98993.97
2022-10-02T09:10:51.580Z,98987.34
2022-10-02T09:14:18.825Z,98993.88
2022-10-02T09:17:47.942Z,99002.13
2022-10-02T09:21:14.797Z,99003.31
2022-10-02T09:24:49.982Z,98998.84
2022-10-02T09:28:26.319Z,99000.94
2022-10-02T09:31:57.796Z,98992.41
2022-10-02T09:35:30.027Z,98990.59
2022-10-02T09:39:03.805Z,98993.19
2022-10-02T09:42:42.839Z,98991.03
2022-10-02T09:46:12.111Z,99002.94
2022-10-02T09:50:00.491Z,99009.66
2022-10-02T09:53:38.169Z,99007.66
2022-10-02T09:57:13.003Z,99006.88
2022-10-02T10:00:35.276Z,99002.91
2022-10-02T10:03:59.549Z,99000.75
2022-10-02T10:07:35.379Z,98995.56
2022-10-02T10:11:02.802Z,98974.84
2022-10-02T10:14:34.497Z,98979.31
2022-10-02T10:18:10.302Z,99003.72
2022-10-02T10:21:51.485Z,99007.91
2022-10-02T10:34:26.179Z,99010.00
2022-10-02T10:38:06.081Z,99013.38
2022-10-02T10:41:40.447Z,99010.28
2022-10-02T10:45:22.358Z,99012.06
2022-10-02T10:48:49.364Z,99011.31
2022-10-02T10:52:11.904Z,99009.00
2022-10-02T10:55:35.662Z,99016.06
2022-10-02T10:59:01.066Z,99017.06
2022-10-02T11:02:37.668Z,99023.63
2022-10-02T11:06:15.473Z,99024.22
2022-10-02T11:09:55.075Z,99032.53
2022-10-02T11:13:23.858Z,99024.38
2022-10-02T11:17:08.849Z,99029.75
2022-10-02T11:20:37.915Z,99029.75
2022-10-02T11:24:10.936Z,99036.13
2022-10-02T11:27:37.392Z,99040.50
2022-10-02T11:30:56.331Z,99045.28
2022-10-02T11:34:37.209Z,99046.44
2022-10-02T11:38:05.756Z,99043.47
2022-10-02T11:41:29.898Z,99043.69
2022-10-02T11:45:04.648Z,99039.09
2022-10-02T11:48:39.194Z,99035.72
2022-10-02T11:52:09.035Z,99028.25
2022-10-02T11:55:33.669Z,99036.53
2022-10-02T11:59:00.260Z,99030.16
2022-10-02T12:02:17.043Z,99024.22
2022-10-02T12:05:46.732Z,99022.94
2022-10-02T12:09:07.434Z,99017.13
2022-10-02T12:12:32.744Z,99022.59
2022-10-02T12:15:53.998Z,99026.16
2022-10-02T12:19:21.646Z,99015.63
2022-10-02T12:22:52.031Z,99021.69
2022-10-02T12:26:22.531Z,99011.63
2022-10-02T12:29:47.697Z,99023.72
2022-10-02T12:33:19.938Z,99032.31
2022-10-02T12:36:44.058Z,99021.53
2022-10-02T12:40:06.146Z,99026.69
2022-10-02T12:43:43.431Z,99015.84
2022-10-02T12:47:21.652Z,99029.41
2022-10-02T12:50:47.887Z,99024.06
2022-10-02T12:54:25.478Z,99032.38
2022-10-02T12:57:56.222Z,99030.13
2022-10-02T13:01:32.180Z,99024.06
2022-10-02T13:05:21.000Z,99028.13
2022-10-02T13:08:45.971Z,99026.28
2022-10-02T13:12:14.159Z,99017.34
2022-10-02T13:15:38.170Z,99015.75
2022-10-02T13:19:05.778Z,99021.13
2022-10-02T13:22:24.100Z,99026.69
2022-10-02T13:25:45.398Z,99022.78
2022-10-02T13:29:22.611Z,99024.72
2022-10-02T13:32:54.094Z,99021.16
2022-10-02T13:36:13.162Z,99023.66
2022-10-02T13:39:35.307Z,99029.00
2022-10-02T13:43:09.260Z,99029.38
2022-10-02T13:46:37.901Z,99026.97
2022-10-02T13:50:04.240Z,99029.38
2022-10-02T13:53:34.605Z,99027.69
2022-10-02T13:56:52.541Z,99022.63
2022-10-02T14:00:10.809Z,99021.03
2022-10-02T14:03:36.514Z,99021.91
2022-10-02T14:06:52.988Z,99019.41
2022-10-02T14:10:17.606Z,99014.44
2022-10-02T14:13:46.392Z,99015.84
2022-10-02T14:17:10.572Z,99026.53
2022-10-02T14:20:36.459Z,99022.66
2022-10-02T14:24:07.267Z,99018.28
2022-10-02T14:27:42.741Z,99028.25
2022-10-02T14:31:10.693Z,99036.81
2022-10-02T14:34:40.843Z,99035.47
2022-10-02T14:38:07.928Z,99038.03
2022-10-02T14:41:33.658Z,99039.47
2022-10-02T14:45:06.046Z,99044.41
2022-10-02T14:48:31.099Z,99044.84
2022-10-02T14:52:05.099Z,99061.88
2022-10-02T14:55:26.118Z,99064.34
2022-10-02T14:58:48.370Z,99071.28
2022-10-02T15:02:18.013Z,99072.19
2022-10-02T15:05:43.060Z,99073.09
2022-10-02T15:08:58.651Z,99075.78
2022-10-02T15:12:17.489Z,99069.69
2022-10-02T15:15:35.571Z,99062.75
2022-10-02T15:18:50.749Z,99067.72
2022-10-02T15:22:09.506Z,99076.16
2022-10-02T15:25:36.781Z,99077.97
2022-10-02T15:29:02.750Z,99090.00
2022-10-02T15:32:31.647Z,99088.19
2022-10-02T15:35:56.648Z,99086.41
2022-10-02T15:39:25.007Z,99098.47
2022-10-02T15:42:52.437Z,99100.94
2022-10-02T15:46:16.741Z,99103.22
2022-10-02T15:49:43.546Z,99113.25
2022-10-02T15:53:04.666Z,99110.50
2022-10-02T15:56:31.417Z,99098.81
2022-10-02T16:00:00.770Z,99111.16
2022-10-02T16:03:21.527Z,99107.44
2022-10-02T16:06:53.356Z,99107.56
2022-10-02T16:10:14.955Z,99104.88
2022-10-02T16:13:42.361Z,99113.22
2022-10-02T16:17:10.838Z,99102.69
2022-10-02T16:20:39.048Z,99109.44
2022-10-02T16:24:10.516Z,99115.28
2022-10-02T16:27:33.110Z,99117.19
2022-10-02T16:31:02.624Z,99122.16
2022-10-02T16:34:25.427Z,99125.25
2022-10-02T16:37:46.324Z,99124.25
2022-10-02T16:41:00.021Z,99128.88
2022-10-02T16:44:27.237Z,99127.09
2022-10-02T16:47:49.242Z,99131.06
2022-10-02T16:51:19.386Z,99133.22
2022-10-02T16:54:45.353Z,99142.66
2022-10-02T16:58:04.200Z,99146.63
2022-10-02T17:01:25.937Z,99146.31
2022-10-02T17:04:46.939Z,99154.44
2022-10-02T17:08:03.167Z,99162.50
2022-10-02T17:11:22.255Z,99171.88
2022-10-02T17:14:45.015Z,99183.53
2022-10-02T17:18:06.793Z,99180.75
2022-10-02T17:21:22.815Z,99189.19
2022-10-02T17:24:39.565Z,99194.13
2022-10-02T17:27:56.254Z,99190.22
2022-10-02T17:31:24.459Z,99195.13
2022-10-02T17:34:46.849Z,99206.50
2022-10-02T17:38:19.809Z,99208.66
2022-10-02T17:41:42.540Z,99214.69
2022-10-02T17:45:07.358Z,99215.13
2022-10-02T17:48:35.184Z,99221.44
2022-10-02T17:51:57.626Z,99229.06
2022-10-02T17:55:40.142Z,99236.91
2022-10-02T17:58:58.285Z,99256.06
2022-10-02T18:02:20.077Z,99252.13
2022-10-02T18:05:39.465Z,99262.00
2022-10-02T18:09:05.375Z,99267.56
2022-10-02T18:12:34.364Z,99274.81
2022-10-02T18:16:04.139Z,99278.50
2022-10-02T18:19:26.446Z,99285.09
2022-10-02T18:22:58.632Z,99290.56
2022-10-02T18:26:26.107Z,99299.47
2022-10-02T18:29:51.628Z,99304.84
2022-10-02T18:33:25.400Z,99307.16
2022-10-02T18:36:51.900Z,99314.00
2022-10-02T18:40:17.312Z,99323.63
2022-10-02T18:43:47.739Z,99331.59
2022-10-02T18:47:06.498Z,99334.81
2022-10-02T18:50:35.785Z,99334.34
2022-10-02T18:54:02.506Z,99339.91
2022-10-02T18:57:31.675Z,99350.13
2022-10-02T19:01:04.900Z,99352.97
2022-10-02T19:04:33.493Z,99342.22
2022-10-02T19:07:48.748Z,99350.97
2022-10-02T19:11:00.906Z,99365.16
2022-10-02T19:14:15.892Z,99366.47
2022-10-02T19:17:29.767Z,99369.59
2022-10-02T19:20:50.276Z,99364.38
2022-10-02T19:24:07.166Z,99376.84
2022-10-02T19:27:27.007Z,99387.63
2022-10-02T19:30:39.719Z,99391.75
2022-10-02T19:33:57.415Z,99402.03
2022-10-02T19:37:09.607Z,99408.97
2022-10-02T19:40:24.578Z,99407.44
2022-10-02T19:43:49.104Z,99412.84
2022-10-02T19:47:03.799Z,99420.78
2022-10-02T19:50:22.025Z,99428.50
2022-10-02T19:53:35.256Z,99438.25
2022-10-02T19:56:47.414Z,99436.34
2022-10-02T20:00:02.421Z,99442.34
2022-10-02T20:03:19.678Z,99443.16
2022-10-02T20:06:32.539Z,99444.69
2022-10-02T20:09:49.215Z,99448.75
2022-10-02T20:13:06.419Z,99456.81
2022-10-02T20:16:32.108Z,99465.66
2022-10-02T20:19:51.885Z,99469.16
2022-10-02T20:23:05.894Z,99474.03
2022-10-02T20:26:19.120Z,99458.88
2022-10-02T20:29:36.837Z,99468.59
2022-10-02T20:32:54.342Z,99474.09
2022-10-02T20:36:14.401Z,99470.91
2022-10-02T20:39:30.309Z,99475.41
2022-10-02T20:42:50.686Z,99484.13
2022-10-02T20:46:30.772Z,99499.63
2022-10-02T20:50:08.382Z,99497.53
2022-10-02T20:53:53.587Z,99504.75
2022-10-02T20:57:56.468Z,99508.19
2022-10-02T21:01:18.632Z,99509.69
2022-10-02T21:04:51.843Z,99520.69
2022-10-02T21:08:20.562Z,99524.03
2022-10-02T21:11:54.474Z,99525.16
2022-10-02T21:15:33.274Z,99527.56
2022-10-02T21:18:58.389Z,99530.63
2022-10-02T21:22:33.209Z,99526.72
2022-10-02T21:26:26.799Z,99524.94
2022-10-02T21:29:54.756Z,99528.44
2022-10-02T21:33:12.295Z,99537.06
2022-10-02T21:36:28.325Z,99535.72
2022-10-02T21:40:09.197Z,99541.97
2022-10-02T21:43:46.526Z,99542.91
2022-10-02T21:47:27.215Z,99536.91
2022-10-02T21:51:03.217Z,99546.75
2022-10-02T21:54:47.925Z,99554.44
2022-10-02T21:58:35.262Z,99555.03
2022-10-02T22:02:10.986Z,99563.81
2022-10-02T22:05:43.772Z,99565.94
2022-10-02T22:09:14.402Z,99570.78
2022-10-02T22:12:40.008Z,99572.31
2022-10-02T22:16:04.672Z,99569.47
2022-10-02T22:19:35.864Z,99575.03
2022-10-02T22:23:05.928Z,99583.94
2022-10-02T22:26:31.516Z,99583.78
2022-10-02T22:29:47.587Z,99587.28
2022-10-02T22:33:18.125Z,99597.84
2022-10-02T22:36:52.885Z,99600.13
2022-10-02T22:40:09.478Z,99595.00
2022-10-02T22:43:28.353Z,99603.91
2022-10-02T22:46:47.949Z,99613.38
2022-10-02T22:50:05.577Z,99619.09
2022-10-02T22:53:22.144Z,99617.16
2022-10-02T22:56:38.877Z,99617.59
2022-10-02T22:59:56.652Z,99629.34
2022-10-02T23:03:19.995Z,99636.72
2022-10-02T23:06:37.480Z,99642.72
2022-10-02T23:09:58.895Z,99636.53
2022-10-02T23:13:21.929Z,99630.53
2022-10-02T23:16:39.559Z,99630.53
2022-10-02T23:19:55.875Z,99632.91
2022-10-02T23:23:18.055Z,99629.34
2022-10-02T23:26:35.078Z,99635.63
2022-10-02T23:29:55.641Z,99640.47
2022-10-02T23:33:17.785Z,99646.03
2022-10-02T23:36:34.219Z,99644.97
2022-10-02T23:39:55.338Z,99657.03
2022-10-02T23:43:07.664Z,99665.75
2022-10-02T23:46:26.083Z,99660.94
2022-10-02T23:49:41.704Z,99661.22
2022-10-02T23:53:04.754Z,99671.78
2022-10-02T23:56:37.066Z,99669.50
